Latest Weather Observations for McCluer Island

IDD60801

Issued at 6:51 pm CST Tuesday 23 October 2018 (issued every 10 minutes, with the page automatically refreshed every 10 minutes)

About weather observations | Map of weather stations | Latest weather observations for NT | Other Formats
Station Details ID: 014274 Name: MCCLUER ISLAND Lat: -11.05 Lon: 132.98 Height: 1.4 m
Data from the previous 72 hours. | See also: Recent months at McCluer Island
Date/Time
CST
Temp
°C
App
Temp
°C
Dew
Point
°C
Rel
Hum
%
Delta-T
°C
Wind Press
QNH
hPa
Press
MSL
hPa
Rain since
9am
mm
Dir  Spd
km/h
Gust
km/h
Spd
kts
Gust
kts
23/06:30pm 29.5 32.5 25.3 78 3.0 NNW 19 22 10 12 1008.7 - 0.0
23/06:00pm 29.9 32.6 25.0 75 3.4 N 20 24 11 13 1008.5 1008.5 0.0
23/05:30pm 30.0 32.6 24.9 74 3.6 N 20 22 11 12 1008.4 - 0.0
23/05:00pm 30.2 32.7 24.8 73 3.8 N 20 24 11 13 1008.2 - 0.0
23/04:30pm 30.5 32.8 25.1 73 3.8 N 22 24 12 13 1008.1 - 0.0
23/04:00pm 30.5 33.0 24.4 70 4.3 N 19 20 10 11 1008.1 - 0.0
23/03:30pm 30.7 33.3 24.6 70 4.3 N 19 22 10 12 1008.1 - 0.0
23/03:00pm 30.7 32.9 23.9 67 4.7 N 19 22 10 12 1008.1 1008.1 0.0
23/02:30pm 31.3 33.9 23.9 64 5.1 N 17 20 9 11 1008.2 - 0.0
23/02:00pm 31.8 34.9 23.6 62 5.7 N 13 15 7 8 1008.6 - 0.0
23/01:30pm 33.0 36.5 23.6 57 6.5 NW 11 13 6 7 1009.1 - 0.0
23/01:00pm 32.3 35.5 22.4 56 6.8 NW 9 11 5 6 1009.7 - 0.0
23/12:30pm 32.2 35.9 22.6 57 6.6 W 7 9 4 5 1010.2 - 0.0
23/12:00pm 31.9 35.2 22.6 58 6.4 WSW 9 13 5 7 1010.7 1010.7 0.0
23/11:30am 32.3 35.3 22.7 57 6.6 SSW 11 13 6 7 1011.1 - 0.0
23/11:00am 31.3 33.7 22.3 58 6.1 SSW 13 17 7 9 1011.4 - 0.0
23/10:30am 32.0 34.5 23.8 62 5.7 S 17 22 9 12 1011.7 - 0.0
23/10:00am 30.9 32.7 23.3 64 5.2 S 19 22 10 12 1011.7 - 0.0
23/09:30am 30.5 32.1 23.9 68 4.6 SSE 22 26 12 14 1011.9 - 0.0
23/09:00am 30.8 33.9 25.4 73 3.8 S 19 22 10 12 1011.7 1011.7 0.0
23/08:30am 29.9 34.9 25.4 77 3.2 SW 9 13 5 7 1011.5 - 0.0
23/08:00am 29.3 33.9 25.3 79 2.8 SW 11 15 6 8 1011.2 - 0.0
23/07:30am 29.2 33.7 25.2 79 2.8 SW 11 13 6 7 1010.9 - 0.0
23/07:00am 28.6 32.6 25.0 81 2.5 SW 13 17 7 9 1010.6 - 0.0
23/06:30am 28.2 32.1 24.8 82 2.4 SW 13 15 7 8 1010.2 - 0.0
23/06:00am 28.2 32.1 24.8 82 2.4 WSW 13 17 7 9 1009.7 1009.7 0.0
23/05:30am 28.3 31.7 24.7 81 2.5 WSW 15 19 8 10 1009.3 - 0.0
23/05:00am 28.2 31.2 24.6 81 2.5 SW 17 20 9 11 1009.4 - 0.0
23/04:30am 28.3 31.2 24.5 80 2.6 SW 17 20 9 11 1009.2 - 0.0
23/04:00am 28.5 31.8 24.5 79 2.8 WSW 15 17 8 9 1008.9 - 0.0
23/03:30am 28.3 31.9 24.3 79 2.8 WSW 13 15 7 8 1008.8 - 0.0
23/03:00am 28.2 32.2 24.4 80 2.6 W 11 15 6 8 1009.0 1009.0 0.0
23/02:30am 28.5 31.7 24.9 81 2.5 WSW 17 20 9 11 1009.1 - 0.0
23/02:00am 28.5 31.3 24.9 81 2.5 W 19 22 10 12 1009.4 - 0.0
23/01:30am 28.6 31.1 24.8 80 2.7 W 20 24 11 13 1009.7 - 0.0
23/01:00am 28.7 30.8 24.7 79 2.8 W 22 24 12 13 1010.1 - 0.0
23/12:30am 28.7 30.9 24.9 80 2.7 W 22 26 12 14 1010.1 - 0.0
23/12:00am 28.8 31.0 24.8 79 2.8 W 22 26 12 14 1010.2 1010.2 0.0
 
Date/Time
CST
Temp
°C
App
Temp
°C
Dew
Point
°C
Rel
Hum
%
Delta-T
°C
Wind Press
QNH
hPa
Press
MSL
hPa
Rain since
9am
mm
Dir  Spd
km/h
Gust
km/h
Spd
kts
Gust
kts
22/11:30pm 28.7 30.7 24.5 78 2.9 WNW 22 24 12 13 1010.4 - 0.0
22/11:00pm 28.7 31.3 24.9 80 2.7 WNW 20 24 11 13 1010.5 - 0.0
22/10:30pm 28.8 31.2 24.6 78 2.9 WNW 20 24 11 13 1010.7 - 0.0
22/10:00pm 28.8 31.3 24.4 77 3.1 NW 19 22 10 12 1010.7 - 0.0
22/09:30pm 28.9 31.2 24.5 77 3.1 NW 20 22 11 12 1010.5 - 0.0
22/09:00pm 28.8 31.1 24.4 77 3.1 WNW 20 24 11 13 1010.3 1010.3 0.0
22/08:30pm 28.8 30.7 24.4 77 3.1 WNW 22 26 12 14 1009.9 - 0.0
22/08:00pm 28.8 30.8 24.6 78 2.9 WNW 22 24 12 13 1009.8 - 0.0
22/07:30pm 28.9 30.8 23.8 74 3.5 NW 20 22 11 12 1009.6 - 0.0
22/07:00pm 29.0 31.0 23.9 74 3.5 NNW 20 24 11 13 1009.3 - 0.0
22/06:30pm 28.9 30.5 23.8 74 3.5 NNW 22 26 12 14 1009.1 - 0.0
22/06:00pm 29.1 31.1 24.0 74 3.5 NNW 20 24 11 13 1008.9 1008.9 0.0
22/05:30pm 29.5 31.6 23.7 71 4.0 NNW 19 22 10 12 1008.7 - 0.0
22/05:00pm 29.6 31.7 23.8 71 4.0 N 19 20 10 11 1008.4 - 0.0
22/04:30pm 29.7 32.3 23.9 71 4.0 N 17 20 9 11 1008.5 - 0.0
22/04:00pm 29.8 32.2 24.2 72 3.9 N 19 22 10 12 1008.7 - 0.0
22/03:30pm 29.6 31.7 23.8 71 4.0 N 19 22 10 12 1008.8 - 0.0
22/03:00pm 30.2 32.5 24.1 70 4.2 N 19 20 10 11 1009.0 1009.0 0.0
22/02:30pm 30.1 32.7 24.0 70 4.2 N 17 19 9 10 1009.3 - 0.0
22/02:00pm 30.8 33.5 24.2 68 4.6 N 17 19 9 10 1009.5 - 0.0
22/01:30pm 30.3 33.3 24.0 69 4.4 N 15 17 8 9 1009.9 - 0.0
22/01:00pm 30.5 33.7 24.9 72 3.9 N 17 19 9 10 1010.4 - 0.0
22/12:30pm 30.1 33.4 24.5 72 3.9 N 15 17 8 9 1010.8 - 0.0
22/12:00pm 30.3 33.8 24.2 70 4.2 N 13 15 7 8 1011.4 1011.4 0.0
22/11:30am 30.4 33.9 23.6 67 4.7 N 11 13 6 7 1011.9 - 0.0
22/11:00am 30.4 34.3 23.6 67 4.7 N 9 11 5 6 1012.3 - 0.0
22/10:30am 29.6 33.3 23.3 69 4.3 N 9 11 5 6 1012.8 - 0.0
22/10:00am 29.3 32.8 22.8 68 4.4 N 9 11 5 6 1012.9 - 0.0
22/09:30am 29.9 33.9 23.1 67 4.7 NNW 7 9 4 5 1013.1 - 0.0
22/09:00am 29.4 34.5 22.6 67 4.6 CALM 0 0 0 0 1013.0 1013.0 0.0
22/08:30am 29.4 34.6 22.9 68 4.4 CALM 0 6 0 3 1012.9 - 0.0
22/08:00am 28.8 32.9 23.0 71 4.0 NNW 6 7 3 4 1012.7 - 0.0
22/07:30am 28.6 33.4 23.5 74 3.5 NW 4 7 2 4 1012.4 - 0.0
22/07:00am 27.8 31.9 23.2 76 3.1 NNW 7 9 4 5 1012.1 - 0.0
22/06:30am 27.2 32.5 23.0 78 2.9 CALM 0 0 0 0 1011.7 - 0.0
22/06:00am 27.0 32.3 23.0 79 2.7 CALM 0 0 0 0 1011.4 1011.4 0.0
22/05:30am 27.0 32.2 22.8 78 2.8 CALM 0 0 0 0 1011.0 - 0.0
22/05:00am 27.3 31.3 22.7 76 3.1 WNW 6 7 3 4 1010.7 - 0.0
22/04:30am 27.3 31.4 22.9 77 3.0 W 6 7 3 4 1010.3 - 0.0
22/04:00am 27.3 31.1 22.7 76 3.1 NW 7 9 4 5 1010.0 - 0.0
22/03:30am 27.3 31.2 22.9 77 3.0 W 7 11 4 6 1010.0 - 0.0
22/03:00am 27.6 31.4 23.4 78 2.9 W 9 13 5 7 1009.9 1009.9 0.0
22/02:30am 27.5 31.1 23.1 77 3.0 W 9 13 5 7 1010.0 - 0.0
22/02:00am 27.5 31.1 23.1 77 3.0 W 9 13 5 7 1010.2 - 0.0
22/01:30am 27.5 31.5 23.1 77 3.0 NW 7 9 4 5 1010.3 - 0.0
22/01:00am 27.8 31.9 23.2 76 3.1 N 7 9 4 5 1010.4 - 0.0
22/12:30am 28.1 31.6 23.5 76 3.2 N 11 13 6 7 1010.5 - 0.0
22/12:00am 28.2 31.7 23.6 76 3.2 N 11 13 6 7 1010.9 1010.9 0.0
 
Date/Time
CST
Temp
°C
App
Temp
°C
Dew
Point
°C
Rel
Hum
%
Delta-T
°C
Wind Press
QNH
hPa
Press
MSL
hPa
Rain since
9am
mm
Dir  Spd
km/h
Gust
km/h
Spd
kts
Gust
kts
21/11:30pm 28.2 31.6 23.3 75 3.4 N 11 13 6 7 1011.1 - 0.0
21/11:00pm 28.3 31.6 23.2 74 3.5 N 11 13 6 7 1011.3 - 0.0
21/10:30pm 28.4 31.6 23.1 73 3.6 N 11 13 6 7 1011.2 - 0.0
21/10:00pm 28.4 31.4 22.6 71 3.9 N 11 13 6 7 1011.1 - 0.0
21/09:30pm 28.6 31.5 23.1 72 3.8 NNE 13 15 7 8 1010.8 - 0.0
21/09:00pm 28.7 31.8 22.9 71 4.0 NNE 11 13 6 7 1010.8 1010.8 0.0
21/08:30pm 28.8 31.3 22.5 68 4.3 NNE 13 15 7 8 1010.3 - 0.0
21/08:00pm 29.0 31.3 22.7 69 4.3 NNE 15 17 8 9 1010.1 - 0.0
21/07:30pm 29.0 30.8 22.5 68 4.4 NNE 17 20 9 11 1010.0 - 0.0
21/07:00pm 29.1 30.7 22.8 69 4.3 NNE 19 20 10 11 1009.9 - 0.0
21/06:30pm 29.1 30.8 23.1 70 4.1 NNE 19 20 10 11 1009.7 - 0.0
21/06:00pm 29.2 31.6 22.9 69 4.3 N 15 17 8 9 1009.3 1009.3 0.0
21/05:30pm 29.0 30.8 22.5 68 4.4 N 17 19 9 10 1008.9 - 0.0
21/05:00pm 29.2 31.9 23.4 71 4.0 N 15 17 8 9 1009.0 - 0.0
21/04:30pm 29.0 31.0 22.2 66 4.6 NNE 15 17 8 9 1009.2 - 0.0
21/04:00pm 29.1 31.8 22.8 69 4.3 N 13 17 7 9 1009.4 - 0.0
21/03:30pm 29.2 31.8 22.7 68 4.4 N 13 15 7 8 1009.5 - 0.0
21/03:00pm 29.9 32.5 22.6 65 5.0 N 13 15 7 8 1009.9 1009.9 0.0
21/02:30pm 29.2 31.7 22.4 66 4.6 NNE 13 15 7 8 1010.4 - 0.0
21/02:00pm 29.5 32.7 23.0 68 4.4 NNE 11 15 6 8 1010.7 - 0.0
21/01:30pm 29.3 31.9 22.0 64 4.9 NNE 11 13 6 7 1011.2 - 0.0
21/01:00pm 29.9 32.9 22.6 65 5.0 NNE 11 13 6 7 1011.8 - 0.0
21/12:30pm 31.1 34.9 22.7 61 5.7 NW 7 9 4 5 1012.4 - 0.0
21/12:00pm 31.0 34.3 22.6 61 5.7 WNW 9 11 5 6 1012.9 1012.9 0.0
21/11:30am 31.0 34.3 22.6 61 5.7 W 9 11 5 6 1013.5 - 0.0
21/11:00am 30.9 34.5 23.0 62 5.4 W 9 11 5 6 1013.6 - 0.0
21/10:30am 30.6 34.2 23.0 64 5.2 W 9 11 5 6 1013.9 - 0.0
21/10:00am 30.2 33.7 22.9 65 5.0 WNW 9 11 5 6 1014.1 - 0.0
21/09:30am 30.1 33.9 22.8 65 5.0 WNW 7 9 4 5 1014.5 - 0.0
21/09:00am 29.7 32.8 22.2 64 5.1 W 9 11 5 6 1014.3 1014.3 0.0
21/08:30am 29.8 33.1 22.5 65 5.0 WSW 9 11 5 6 1014.0 - 0.0
21/08:00am 29.0 32.8 22.7 69 4.3 SW 7 9 4 5 1013.7 - 0.0
21/07:30am 28.8 32.7 23.0 71 4.0 SW 7 9 4 5 1013.2 - 0.0
21/07:00am 28.0 31.9 22.9 74 3.5 SW 7 9 4 5 1012.9 - 0.0
21/06:30am 27.5 31.4 22.9 76 3.1 W 7 9 4 5 1012.6 - 0.0
21/06:00am 27.5 31.1 22.4 73 3.4 WNW 7 9 4 5 1012.4 1012.4 0.0
21/05:30am 27.4 31.0 22.3 73 3.4 NW 7 9 4 5 1012.1 - 0.0
21/05:00am 27.5 31.3 22.7 75 3.3 WNW 7 9 4 5 1011.8 - 0.0
21/04:30am 27.5 31.0 22.9 76 3.1 W 9 11 5 6 1011.6 - 0.0
21/04:00am 27.5 30.9 22.7 75 3.3 NW 9 11 5 6 1011.4 - 0.0
21/03:30am 27.6 31.2 23.0 76 3.1 NW 9 11 5 6 1011.2 - 0.0
21/03:00am 27.6 31.3 22.5 74 3.5 N 7 9 4 5 1011.3 1011.3 0.0
21/02:30am 27.8 31.1 22.5 73 3.6 NNW 9 11 5 6 1011.3 - 0.0
21/02:00am 27.8 31.1 22.5 73 3.6 NNW 9 11 5 6 1011.5 - 0.0
21/01:30am 28.0 31.3 22.5 72 3.7 N 9 11 5 6 1011.9 - 0.0
21/01:00am 28.2 31.6 23.3 75 3.4 N 11 15 6 8 1012.2 - 0.0
21/12:30am 28.4 31.1 22.9 72 3.7 N 13 17 7 9 1012.3 - 0.0
21/12:00am 28.2 30.7 22.4 71 3.9 NNW 13 15 7 8 1012.3 1012.3 0.0
 
Date/Time
CST
Temp
°C
App
Temp
°C
Dew
Point
°C
Rel
Hum
%
Delta-T
°C
Wind Press
QNH
hPa
Press
MSL
hPa
Rain since
9am
mm
Dir  Spd
km/h
Gust
km/h
Spd
kts
Gust
kts
20/11:30pm 28.4 31.4 23.3 74 3.5 N 13 15 7 8 1012.2 - 0.0
20/11:00pm 28.3 31.0 22.8 72 3.7 NNW 13 17 7 9 1012.4 - 0.0
20/10:30pm 28.5 30.9 23.6 75 3.4 N 17 20 9 11 1012.3 - 0.0
20/10:00pm 28.5 30.5 23.0 72 3.8 N 17 19 9 10 1012.1 - 0.0
20/09:30pm 28.8 31.2 23.7 74 3.5 N 17 20 9 11 1011.9 - 0.0
20/09:00pm 28.7 31.1 22.9 71 4.0 N 15 17 8 9 1011.7 1011.7 0.0
20/08:30pm 28.8 31.2 23.0 71 4.0 N 15 17 8 9 1011.4 - 0.0
20/08:00pm 28.7 31.3 22.7 70 4.1 N 13 17 7 9 1011.0 - 0.0
20/07:30pm 28.9 31.4 23.1 71 4.0 N 15 19 8 10 1010.3 - 0.0
20/07:00pm 28.9 31.3 22.9 70 4.1 N 15 19 8 10 1009.9 - 0.0

Other Formats:

Comma delimited format used in spreadsheet applications
http://www.bom.gov.au/fwo/IDD60801/IDD60801.94135.axf

JavaScript Object Notation format (JSON) in row-major order
http://www.bom.gov.au/fwo/IDD60801/IDD60801.94135.json